KRBW

Lowcountry Regional Airport

Walterboro, South Carolina, USA
METAR KRBW 171015Z AUTO 00000KT 10SM CLR 00/M01 A3025 RMK AO2
Observed Flight Rules
Jan-17 @ 10:15 UTC (18 minutes ago) Visual Flight Rules
Wind Visibility Clouds
Calm 10 miles
  • Clear skies
Temperatures Readings
Current 0°C / 32°F
Dewpoint -1°C / 30°F
Humidity 93%
Altimeter 30.25" Hg
Pressure 1024 hPa
Elevation 31
METAR KRBW 171015Z AUTO 00000KT 10SM CLR 00/M01 A3025 RMK AO2
Observed Flight Rules
Jan-17 @ 10:15 UTC
(18 minutes ago)
VFR
Wind Visibility
Calm 10 miles
Clouds
  • Clear skies
Temperature Dewpoint
0°C / 32°F -1°C / 30°F
Humidity Altimeter Pressure
93% 30.25" Hg 1024 hPa